Terminal Aerodrome Forecast
Issued by NWS Sioux Falls, SD

Home | Current Version | Previous Version | Graphics & Text | Print | Product List | Glossary On
Versions: 1 2 3 4 5 6 7 8 9 10 11 12 13 14
000
FTUS43 KFSD 151700
TAFSUX
TAF
KSUX 151726Z 1518/1618 17013KT P6SM FEW120
     FM152100 17014G22KT P6SM SCT150
     FM160130 14016G23KT P6SM SCT150
     FM160500 14014KT P6SM BKN120 WS010/19041KT
     FM161500 26015G21KT P6SM BKN050=

USA.gov is the U.S. government's official web portal to all federal, state and local government web resources and services.